Time;durP1;ratioP1;P1;durP2;ratioP2;P2;SDS_P1;SDS_P2;PMS_P1;PMS_P2;Temp;Humidity;BMP_temperature;BMP_pressure;BME280_temperature;BME280_humidity;BME280_pressure;Samples;Min_cycle;Max_cycle;Signal;HPM_P1;HPM_P2
2022/11/29 00:00:46;;;;;;;0.20;0.20;;;7.60;99.90;;;;;;5052725;28;20767;-71
2022/11/29 00:03:12;;;;;;;0.03;0.03;;;7.60;99.90;;;;;;5052806;28;20185;-70
2022/11/29 00:05:37;;;;;;;0.00;0.00;;;7.60;99.90;;;;;;5052675;28;20185;-71
2022/11/29 00:08:03;;;;;;;0.00;0.00;;;7.60;99.90;;;;;;5052425;28;20197;-71
2022/11/29 00:10:28;;;;;;;0.28;0.28;;;7.60;99.90;;;;;;5052715;28;20633;-71
2022/11/29 00:12:54;;;;;;;0.73;0.73;;;7.60;99.90;;;;;;5051906;28;20204;-72
2022/11/29 00:15:19;;;;;;;0.00;0.00;;;7.60;99.90;;;;;;5051209;28;20276;-71
2022/11/29 00:17:45;;;;;;;0.00;0.00;;;7.60;99.90;;;;;;5052149;28;20181;-71
2022/11/29 00:20:11;;;;;;;0.20;0.20;;;7.50;99.90;;;;;;5052245;28;20190;-71
2022/11/29 00:22:37;;;;;;;0.20;0.20;;;7.50;99.90;;;;;;5052168;28;20181;-70
2022/11/29 00:25:04;;;;;;;0.00;0.00;;;7.50;99.90;;;;;;5052135;28;20252;-70
2022/11/29 00:27:29;;;;;;;0.00;0.00;;;7.50;99.90;;;;;;5051113;28;20264;-70
2022/11/29 00:29:55;;;;;;;0.30;0.30;;;7.50;99.90;;;;;;5052231;28;20264;-70
2022/11/29 00:32:20;;;;;;;0.00;0.00;;;7.50;99.90;;;;;;5052410;28;20213;-70
2022/11/29 00:34:46;;;;;;;0.10;0.10;;;7.50;99.90;;;;;;5052332;28;20166;-70
2022/11/29 00:37:11;;;;;;;0.00;0.00;;;7.50;99.90;;;;;;5052292;28;20185;-70
2022/11/29 00:39:37;;;;;;;0.00;0.00;;;7.60;99.90;;;;;;5051046;28;20201;-70
2022/11/29 00:42:02;;;;;;;0.08;0.08;;;7.60;99.90;;;;;;5050753;28;20195;-70
2022/11/29 00:44:28;;;;;;;0.00;0.00;;;7.60;99.90;;;;;;5052236;28;20227;-70
2022/11/29 00:46:53;;;;;;;0.55;0.55;;;7.60;99.90;;;;;;5052160;28;20174;-70
2022/11/29 00:49:19;;;;;;;0.00;0.00;;;7.60;99.90;;;;;;5052216;28;20181;-70
2022/11/29 00:51:45;;;;;;;0.10;0.10;;;7.60;99.90;;;;;;5051417;28;20182;-70
2022/11/29 00:54:11;;;;;;;0.15;0.10;;;7.60;99.90;;;;;;5052077;28;20653;-70
2022/11/29 00:56:37;;;;;;;0.00;0.00;;;7.50;99.90;;;;;;5034043;28;20208;-71
2022/11/29 00:59:02;;;;;;;0.00;0.00;;;7.50;99.90;;;;;;5051775;28;20196;-71
2022/11/29 01:01:28;;;;;;;0.00;0.00;;;7.50;99.90;;;;;;5051908;28;20220;-71
2022/11/29 01:03:53;;;;;;;0.00;0.00;;;7.50;99.90;;;;;;5052070;28;20260;-71
2022/11/29 01:06:19;;;;;;;0.13;0.13;;;7.50;99.90;;;;;;5051848;28;20187;-71
2022/11/29 01:08:45;;;;;;;0.00;0.00;;;7.50;99.90;;;;;;5051578;28;20714;-71
2022/11/29 01:11:15;;;;;;;0.00;0.00;;;7.50;99.90;;;;;;5051836;28;20189;-71
2022/11/29 01:13:41;;;;;;;0.40;0.40;;;7.50;99.90;;;;;;5051325;28;20307;-71
2022/11/29 01:16:07;;;;;;;0.00;0.00;;;7.50;99.90;;;;;;5051399;28;20231;-71
2022/11/29 01:18:33;;;;;;;0.00;0.00;;;7.50;99.90;;;;;;5051723;28;20720;-71
2022/11/29 01:21:09;;;;;;;0.08;0.08;;;7.50;99.90;;;;;;5051749;28;20185;-71
2022/11/29 01:23:36;;;;;;;0.00;0.00;;;7.60;99.90;;;;;;5052066;28;20189;-70
2022/11/29 01:26:07;;;;;;;0.00;0.00;;;7.60;99.90;;;;;;5051315;28;20182;-71
2022/11/29 01:28:34;;;;;;;0.00;0.00;;;7.60;99.90;;;;;;5051801;28;20200;-71
2022/11/29 01:31:18;;;;;;;0.00;0.00;;;7.60;99.90;;;;;;5051639;28;20524;-71
2022/11/29 01:33:43;;;;;;;0.00;0.00;;;7.60;99.90;;;;;;5051736;28;20216;-71
2022/11/29 01:36:11;;;;;;;0.15;0.15;;;7.60;99.90;;;;;;5051929;28;20256;-71
2022/11/29 01:38:36;;;;;;;0.00;0.00;;;7.60;99.90;;;;;;5051781;28;20170;-70
2022/11/29 01:41:05;;;;;;;0.00;0.00;;;7.60;99.90;;;;;;5051762;28;20192;-71
2022/11/29 01:43:31;;;;;;;0.00;0.00;;;7.60;99.90;;;;;;5051587;28;20223;-71
2022/11/29 01:45:57;;;;;;;0.00;0.00;;;7.60;99.90;;;;;;5051612;28;20182;-71
2022/11/29 01:48:28;;;;;;;0.00;0.00;;;7.60;99.90;;;;;;5050536;28;20170;-71
2022/11/29 01:50:58;;;;;;;0.55;0.17;;;7.60;99.90;;;;;;5051730;28;20205;-71
2022/11/29 01:53:23;;;;;;;0.05;0.05;;;7.60;99.90;;;;;;5051638;28;20564;-71
2022/11/29 01:55:57;;;;;;;0.00;0.00;;;7.60;99.90;;;;;;5051436;28;20178;-71
2022/11/29 01:58:23;;;;;;;0.10;0.10;;;7.60;99.90;;;;;;5050383;28;20181;-71
2022/11/29 02:00:49;;;;;;;0.00;0.00;;;7.50;99.90;;;;;;5051445;28;20176;-71
2022/11/29 02:03:16;;;;;;;0.00;0.00;;;7.50;99.90;;;;;;5052357;28;20191;-71
2022/11/29 02:05:46;;;;;;;0.00;0.00;;;7.60;99.90;;;;;;5055130;28;20173;-72
2022/11/29 02:08:14;;;;;;;0.00;0.00;;;7.60;99.90;;;;;;5054965;28;20173;-71
2022/11/29 02:11:10;;;;;;;0.10;0.10;;;7.60;99.90;;;;;;5054916;28;20162;-71
2022/11/29 02:13:44;;;;;;;0.00;0.00;;;7.60;99.90;;;;;;5053460;28;20237;-71
2022/11/29 02:16:33;;;;;;;0.00;0.00;;;7.60;99.90;;;;;;5054836;28;20188;-71
2022/11/29 02:19:27;;;;;;;0.00;0.00;;;7.60;99.90;;;;;;5055425;28;20173;-71
2022/11/29 02:22:16;;;;;;;0.00;0.00;;;7.60;99.90;;;;;;5034690;28;20170;-71
2022/11/29 02:25:05;;;;;;;0.00;0.00;;;7.60;99.90;;;;;;5034445;28;20197;-71
2022/11/29 02:28:10;;;;;;;0.00;0.00;;;7.60;99.90;;;;;;5033545;28;20210;-71
2022/11/29 02:30:50;;;;;;;0.00;0.00;;;7.60;99.90;;;;;;5034739;28;20170;-71
2022/11/29 02:33:27;;;;;;;0.00;0.00;;;7.60;99.90;;;;;;5033302;28;20224;-71
2022/11/29 02:36:10;;;;;;;0.45;0.25;;;7.70;99.90;;;;;;5034511;28;20173;-71
2022/11/29 02:38:54;;;;;;;0.00;0.00;;;7.70;99.90;;;;;;5034614;28;20179;-71
2022/11/29 02:41:35;;;;;;;0.00;0.00;;;7.70;99.90;;;;;;5034480;28;20181;-71
2022/11/29 02:44:09;;;;;;;0.00;0.00;;;7.70;99.90;;;;;;5051110;28;20204;-72
2022/11/29 02:47:05;;;;;;;0.00;0.00;;;7.70;99.90;;;;;;5053950;28;20180;-72
2022/11/29 02:50:12;;;;;;;0.00;0.00;;;7.70;99.90;;;;;;5054324;28;20633;-71
2022/11/29 02:53:00;;;;;;;0.00;0.00;;;7.80;99.90;;;;;;5025978;28;20287;-71
2022/11/29 02:55:39;;;;;;;0.13;0.13;;;7.70;99.90;;;;;;5048306;28;20652;-71
2022/11/29 02:58:13;;;;;;;0.00;0.00;;;7.80;99.90;;;;;;5054078;28;20184;-71
2022/11/29 03:00:50;;;;;;;0.00;0.00;;;7.80;99.90;;;;;;5053385;28;20219;-70
2022/11/29 03:03:37;;;;;;;0.00;0.00;;;7.80;99.90;;;;;;5054106;28;20201;-72
2022/11/29 03:06:31;;;;;;;0.00;0.00;;;7.80;99.90;;;;;;5033972;28;20516;-71
2022/11/29 03:09:05;;;;;;;0.00;0.00;;;7.80;99.90;;;;;;5037478;28;20193;-71
2022/11/29 03:11:41;;;;;;;0.00;0.00;;;7.80;99.90;;;;;;5053846;28;20179;-71
2022/11/29 03:14:16;;;;;;;0.00;0.00;;;7.80;99.90;;;;;;5053235;28;20229;-71
2022/11/29 03:16:45;;;;;;;0.00;0.00;;;7.80;99.90;;;;;;5052947;28;20169;-71
2022/11/29 03:19:42;;;;;;;0.00;0.00;;;7.80;99.90;;;;;;5053366;28;20710;-72
2022/11/29 03:22:13;;;;;;;0.00;0.00;;;7.90;99.90;;;;;;5032427;28;20666;-71
2022/11/29 03:25:11;;;;;;;0.20;0.20;;;7.80;99.90;;;;;;5046918;28;20182;-71
2022/11/29 03:27:43;;;;;;;0.10;0.10;;;7.80;99.90;;;;;;5053488;28;20176;-71
2022/11/29 03:30:12;;;;;;;0.10;0.10;;;7.80;99.90;;;;;;5052012;28;21004;-71
2022/11/29 03:32:59;;;;;;;0.00;0.00;;;7.90;99.90;;;;;;5053366;28;20728;-71
2022/11/29 03:35:58;;;;;;;0.32;0.32;;;7.90;99.90;;;;;;5043985;28;20680;-71
2022/11/29 03:38:43;;;;;;;0.10;0.10;;;7.90;99.90;;;;;;5050030;28;20664;-71
2022/11/29 03:41:42;;;;;;;0.00;0.00;;;7.90;99.90;;;;;;5050422;28;20197;-71
2022/11/29 03:44:22;;;;;;;0.00;0.00;;;7.90;99.90;;;;;;5052365;28;20525;-71
2022/11/29 03:46:55;;;;;;;0.00;0.00;;;7.90;99.90;;;;;;5052894;28;20687;-71
2022/11/29 03:49:47;;;;;;;0.00;0.00;;;7.90;99.90;;;;;;5052973;28;20177;-71
2022/11/29 03:52:28;;;;;;;0.10;0.10;;;7.90;99.90;;;;;;5042770;28;20185;-72
2022/11/29 03:55:23;;;;;;;0.08;0.08;;;7.90;99.90;;;;;;5052098;28;20268;-71
2022/11/29 03:58:19;;;;;;;0.00;0.00;;;7.90;99.90;;;;;;5051782;28;20244;-71
2022/11/29 04:00:48;;;;;;;0.43;0.20;;;7.90;99.90;;;;;;5049644;28;20192;-72
2022/11/29 04:03:32;;;;;;;0.00;0.00;;;7.90;99.90;;;;;;5052491;28;20189;-72
2022/11/29 04:06:23;;;;;;;0.00;0.00;;;7.90;99.90;;;;;;5050436;28;20227;-71
2022/11/29 04:09:18;;;;;;;0.10;0.10;;;7.90;99.90;;;;;;5032768;28;20586;-71
2022/11/29 04:12:12;;;;;;;0.00;0.00;;;8.00;99.90;;;;;;5050365;28;20217;-70
2022/11/29 04:15:01;;;;;;;0.00;0.00;;;8.00;99.90;;;;;;5052209;28;20275;-70
2022/11/29 04:17:35;;;;;;;0.38;0.30;;;8.00;99.90;;;;;;5052574;28;20584;-70
2022/11/29 04:20:12;;;;;;;0.08;0.08;;;8.00;99.90;;;;;;5052238;28;20227;-71
2022/11/29 04:22:41;;;;;;;0.00;0.00;;;8.00;99.90;;;;;;5052272;28;20181;-71
2022/11/29 04:25:27;;;;;;;0.05;0.05;;;8.00;99.90;;;;;;5052503;28;20256;-71
2022/11/29 04:28:11;;;;;;;0.00;0.00;;;8.00;99.90;;;;;;5052008;28;20182;-71
2022/11/29 04:31:10;;;;;;;0.08;0.08;;;8.00;99.90;;;;;;5050721;28;20239;-70
2022/11/29 04:33:50;;;;;;;0.00;0.00;;;8.00;99.90;;;;;;5051966;28;20287;-70
2022/11/29 04:36:52;;;;;;;0.00;0.00;;;8.00;99.90;;;;;;5052250;28;20169;-70
2022/11/29 04:39:44;;;;;;;0.10;0.05;;;8.00;99.90;;;;;;5032463;28;20192;-70
2022/11/29 04:42:41;;;;;;;0.00;0.00;;;8.00;99.90;;;;;;5045894;28;20183;-70
2022/11/29 04:45:30;;;;;;;0.20;0.20;;;8.00;99.90;;;;;;5032223;28;20181;-69
2022/11/29 04:48:25;;;;;;;0.00;0.00;;;8.00;99.90;;;;;;5042222;28;20180;-66
2022/11/29 04:51:12;;;;;;;0.08;0.05;;;8.00;99.90;;;;;;5052314;28;20173;-73
2022/11/29 04:53:50;;;;;;;0.00;0.00;;;8.00;99.90;;;;;;5051756;28;20232;-69
2022/11/29 04:56:31;;;;;;;0.00;0.00;;;8.00;99.90;;;;;;5051607;28;20173;-68
2022/11/29 04:59:06;;;;;;;0.30;0.30;;;8.00;99.90;;;;;;5051774;28;20197;-73
2022/11/29 05:01:57;;;;;;;0.05;0.05;;;8.00;99.90;;;;;;5050343;28;20184;-67
2022/11/29 05:04:52;;;;;;;0.00;0.00;;;8.00;99.90;;;;;;5050383;28;20185;-71
2022/11/29 05:07:39;;;;;;;0.08;0.08;;;8.00;99.90;;;;;;5051758;28;20219;-68
2022/11/29 05:10:25;;;;;;;0.00;0.00;;;8.00;99.90;;;;;;5035396;28;20252;-72
2022/11/29 05:13:08;;;;;;;0.00;0.00;;;8.00;99.90;;;;;;5026777;28;20260;-71
2022/11/29 05:15:37;;;;;;;0.00;0.00;;;8.00;99.90;;;;;;5031850;28;20178;-71
2022/11/29 05:18:25;;;;;;;0.00;0.00;;;8.00;99.90;;;;;;5047993;28;20669;-70
2022/11/29 05:21:27;;;;;;;0.10;0.10;;;8.00;99.90;;;;;;5064066;28;20193;-70
2022/11/29 05:24:08;;;;;;;0.17;0.17;;;8.00;99.90;;;;;;5046717;28;20539;-71
2022/11/29 05:27:13;;;;;;;0.00;0.00;;;8.00;99.90;;;;;;5051449;28;20212;-71
2022/11/29 05:29:49;;;;;;;0.00;0.00;;;8.00;99.90;;;;;;5048492;28;20193;-71
2022/11/29 05:32:29;;;;;;;0.00;0.00;;;7.90;99.90;;;;;;5051508;28;20644;-71
2022/11/29 05:35:16;;;;;;;0.08;0.08;;;7.90;99.90;;;;;;5051502;28;20248;-70
2022/11/29 05:37:53;;;;;;;0.10;0.05;;;8.00;99.90;;;;;;5051585;28;20200;-70
2022/11/29 05:40:37;;;;;;;0.40;0.40;;;8.00;99.90;;;;;;5051233;28;20499;-70
2022/11/29 05:43:22;;;;;;;0.32;0.32;;;8.00;99.90;;;;;;5051498;28;20189;-71
2022/11/29 05:46:17;;;;;;;0.17;0.10;;;8.00;99.90;;;;;;5044577;28;20231;-71
2022/11/29 05:49:05;;;;;;;0.00;0.00;;;8.00;99.90;;;;;;5049846;28;20236;-71
2022/11/29 05:51:48;;;;;;;0.03;0.03;;;8.00;99.90;;;;;;5035020;28;20189;-71
2022/11/29 05:54:35;;;;;;;0.00;0.00;;;7.90;99.90;;;;;;5053093;28;20231;-71
2022/11/29 05:57:00;;;;;;;0.00;0.00;;;8.00;99.90;;;;;;5054258;28;20165;-71
2022/11/29 05:59:28;;;;;;;0.20;0.10;;;8.00;99.90;;;;;;5034808;28;20268;-71
2022/11/29 06:02:04;;;;;;;0.35;0.25;;;8.00;99.90;;;;;;5040686;28;20707;-71
2022/11/29 06:05:07;;;;;;;0.00;0.00;;;8.00;99.90;;;;;;5043817;28;20340;-71
2022/11/29 06:07:51;;;;;;;0.00;0.00;;;8.00;99.90;;;;;;5053385;28;20203;-71
2022/11/29 06:10:18;;;;;;;0.08;0.08;;;8.00;99.90;;;;;;5054607;28;20257;-71
2022/11/29 06:13:02;;;;;;;0.08;0.08;;;8.00;99.90;;;;;;5052744;28;20308;-71
2022/11/29 06:15:47;;;;;;;0.00;0.00;;;8.00;99.90;;;;;;5042323;28;20233;-71
2022/11/29 06:18:38;;;;;;;0.00;0.00;;;8.00;99.90;;;;;;5052969;28;20268;-71
2022/11/29 06:21:32;;;;;;;0.20;0.20;;;8.00;99.90;;;;;;5052947;28;20588;-71
2022/11/29 06:24:24;;;;;;;0.03;0.03;;;8.00;99.90;;;;;;5053063;28;20193;-71
2022/11/29 06:27:36;;;;;;;0.30;0.10;;;8.00;99.90;;;;;;5054534;28;20189;-71
2022/11/29 06:30:08;;;;;;;0.00;0.00;;;8.00;99.90;;;;;;5054422;28;20297;-71
2022/11/29 06:32:53;;;;;;;0.00;0.00;;;8.10;99.90;;;;;;5054280;28;20655;-71
2022/11/29 06:35:46;;;;;;;0.00;0.00;;;8.10;99.90;;;;;;5054380;28;20264;-71
2022/11/29 06:38:19;;;;;;;0.00;0.00;;;8.10;99.90;;;;;;5054122;28;20186;-71
2022/11/29 06:40:45;;;;;;;0.00;0.00;;;8.10;99.90;;;;;;5046800;28;20273;-71
2022/11/29 06:43:11;;;;;;;0.10;0.10;;;8.10;99.90;;;;;;5034112;28;20270;-71
2022/11/29 06:45:41;;;;;;;0.00;0.00;;;8.10;99.90;;;;;;5034263;28;20185;-72
2022/11/29 06:48:11;;;;;;;0.00;0.00;;;8.10;99.90;;;;;;5052218;28;20189;-71
2022/11/29 06:51:02;;;;;;;0.35;0.35;;;8.10;99.90;;;;;;5032886;28;20185;-71
2022/11/29 06:53:42;;;;;;;0.03;0.03;;;8.10;99.90;;;;;;5034065;28;20608;-71
2022/11/29 06:56:25;;;;;;;0.05;0.05;;;8.10;99.90;;;;;;5033696;28;20167;-72
2022/11/29 06:59:09;;;;;;;0.05;0.05;;;8.10;99.90;;;;;;5033926;28;20633;-71
2022/11/29 07:01:51;;;;;;;0.22;0.22;;;8.00;99.90;;;;;;5033977;28;20216;-71
2022/11/29 07:04:47;;;;;;;0.20;0.20;;;8.00;99.90;;;;;;5043445;28;20178;-71
2022/11/29 07:07:16;;;;;;;0.40;0.40;;;8.10;99.90;;;;;;5052570;28;20188;-71
2022/11/29 07:09:42;;;;;;;0.10;0.10;;;8.00;99.90;;;;;;5053491;28;20223;-71
2022/11/29 07:12:08;;;;;;;0.00;0.00;;;8.00;99.90;;;;;;5053505;28;20181;-71
2022/11/29 07:14:34;;;;;;;0.20;0.20;;;8.00;99.90;;;;;;5051951;28;20240;-71
2022/11/29 07:17:19;;;;;;;0.10;0.10;;;8.00;99.90;;;;;;5053127;28;20590;-71
2022/11/29 07:19:57;;;;;;;0.15;0.15;;;8.00;99.90;;;;;;5064254;28;20528;-70
2022/11/29 07:22:23;;;;;;;0.00;0.00;;;8.00;99.90;;;;;;5062103;28;20584;-71
2022/11/29 07:25:09;;;;;;;0.28;0.28;;;8.00;99.90;;;;;;5053298;28;20174;-71
2022/11/29 07:27:58;;;;;;;0.00;0.00;;;8.00;99.90;;;;;;5053384;28;20260;-71
2022/11/29 07:30:30;;;;;;;0.00;0.00;;;8.10;99.90;;;;;;5053364;28;20174;-71
2022/11/29 07:33:19;;;;;;;0.47;0.47;;;8.00;99.90;;;;;;5053179;28;20272;-71
2022/11/29 07:36:15;;;;;;;0.00;0.00;;;8.10;99.90;;;;;;5053250;28;20169;-71
2022/11/29 07:39:12;;;;;;;0.00;0.00;;;8.10;99.90;;;;;;5051838;28;20182;-71
2022/11/29 07:42:14;;;;;;;0.00;0.00;;;8.10;99.90;;;;;;5051713;28;20182;-71
2022/11/29 07:44:52;;;;;;;0.45;0.45;;;8.10;99.90;;;;;;5033010;28;20554;-71
2022/11/29 07:47:17;;;;;;;1.45;0.30;;;8.20;99.90;;;;;;5052978;28;20181;-71
2022/11/29 07:49:43;;;;;;;0.00;0.00;;;8.20;99.90;;;;;;5052808;28;20181;-71
2022/11/29 07:52:13;;;;;;;0.10;0.10;;;8.20;99.90;;;;;;5052790;28;20174;-71
2022/11/29 07:54:39;;;;;;;0.10;0.10;;;8.20;99.90;;;;;;5052834;28;20208;-71
2022/11/29 07:57:05;;;;;;;0.28;0.28;;;8.20;99.90;;;;;;5052823;28;20262;-71
2022/11/29 07:59:30;;;;;;;0.00;0.00;;;8.30;99.90;;;;;;5051534;28;20188;-71
2022/11/29 08:01:56;;;;;;;0.10;0.10;;;8.30;99.90;;;;;;5052274;28;20176;-71
2022/11/29 08:04:21;;;;;;;0.10;0.10;;;8.30;99.90;;;;;;5052777;28;20214;-71
2022/11/29 08:06:47;;;;;;;0.03;0.03;;;8.30;99.90;;;;;;5052556;28;20184;-71
2022/11/29 08:09:12;;;;;;;0.00;0.00;;;8.30;99.90;;;;;;5052687;28;20248;-71
2022/11/29 08:11:38;;;;;;;0.00;0.00;;;8.30;99.90;;;;;;5051367;28;20557;-71
2022/11/29 08:14:04;;;;;;;0.20;0.10;;;8.30;99.90;;;;;;5052263;28;20233;-71
2022/11/29 08:16:30;;;;;;;0.55;0.55;;;8.30;99.90;;;;;;5052436;28;20264;-71
2022/11/29 08:18:56;;;;;;;0.00;0.00;;;8.30;99.90;;;;;;5052428;28;20208;-71
2022/11/29 08:21:21;;;;;;;0.10;0.10;;;8.30;99.90;;;;;;5052409;28;20178;-71
2022/11/29 08:23:48;;;;;;;0.00;0.00;;;8.30;99.90;;;;;;5052346;28;20615;-71
2022/11/29 08:26:15;;;;;;;0.00;0.00;;;8.30;99.90;;;;;;5052412;28;20173;-71
2022/11/29 08:28:41;;;;;;;0.00;0.00;;;8.30;99.90;;;;;;5052243;28;20178;-71
2022/11/29 08:31:10;;;;;;;0.00;0.00;;;8.30;99.90;;;;;;5051710;28;20173;-71
2022/11/29 08:33:37;;;;;;;0.05;0.05;;;8.40;99.90;;;;;;5051801;28;20649;-71
2022/11/29 08:36:09;;;;;;;0.00;0.00;;;8.40;99.90;;;;;;5052170;28;20534;-71
2022/11/29 08:38:34;;;;;;;0.00;0.00;;;8.40;99.90;;;;;;5032263;28;20658;-71
2022/11/29 08:41:02;;;;;;;0.00;0.00;;;8.40;99.90;;;;;;5034460;28;20221;-71
2022/11/29 08:43:29;;;;;;;0.00;0.00;;;8.40;99.90;;;;;;5052177;28;20169;-71
2022/11/29 08:45:54;;;;;;;0.00;0.00;;;8.40;99.90;;;;;;5052016;28;20181;-71
2022/11/29 08:48:20;;;;;;;0.00;0.00;;;8.50;99.90;;;;;;5051997;28;20173;-71
2022/11/29 08:50:48;;;;;;;0.00;0.00;;;8.50;99.90;;;;;;5032074;28;20268;-71
2022/11/29 08:55:59;;;;;;;0.10;0.10;;;8.60;99.90;;;;;;5032266;28;20185;-70
2022/11/29 08:58:25;;;;;;;0.00;0.00;;;8.60;99.90;;;;;;5032185;28;20166;-70
2022/11/29 09:00:51;;;;;;;0.00;0.00;;;8.70;99.90;;;;;;5032004;28;20516;-71
2022/11/29 09:06:19;;;;;;;0.00;0.00;;;8.70;99.90;;;;;;5032188;28;20173;-71
2022/11/29 09:08:45;;;;;;;0.08;0.08;;;8.70;99.90;;;;;;5031907;28;20189;-71
2022/11/29 09:11:15;;;;;;;0.43;0.43;;;8.80;99.90;;;;;;5031891;28;20536;-71
2022/11/29 09:13:43;;;;;;;0.25;0.15;;;8.80;99.90;;;;;;5033272;28;20700;-71
2022/11/29 09:16:11;;;;;;;0.00;0.00;;;8.90;99.90;;;;;;5035788;28;20178;-71
2022/11/29 09:18:38;;;;;;;0.00;0.00;;;8.90;99.90;;;;;;5037828;28;20252;-71
2022/11/29 09:21:12;;;;;;;0.00;0.00;;;8.90;99.90;;;;;;5055478;28;20473;-71
2022/11/29 09:23:39;;;;;;;0.08;0.08;;;8.90;99.90;;;;;;5054012;28;20188;-71
2022/11/29 09:26:07;;;;;;;0.05;0.05;;;9.00;99.90;;;;;;5055110;28;20185;-71
2022/11/29 09:28:33;;;;;;;0.00;0.00;;;9.00;99.90;;;;;;5054981;28;20193;-71
2022/11/29 09:31:06;;;;;;;0.32;0.32;;;9.00;99.90;;;;;;5055060;28;20185;-72
2022/11/29 09:33:32;;;;;;;0.00;0.00;;;9.00;99.90;;;;;;5055243;28;20223;-72
2022/11/29 09:35:58;;;;;;;0.13;0.13;;;9.10;99.90;;;;;;5055205;28;20264;-72
2022/11/29 09:38:24;;;;;;;0.00;0.00;;;9.00;99.90;;;;;;5055230;28;20186;-72
2022/11/29 09:41:04;;;;;;;0.00;0.00;;;9.10;99.90;;;;;;5054861;28;20185;-72
2022/11/29 09:43:38;;;;;;;0.00;0.00;;;9.10;99.90;;;;;;5055237;28;20185;-72
2022/11/29 09:46:53;;;;;;;0.00;0.00;;;9.20;99.90;;;;;;5055110;28;20173;-71
2022/11/29 09:49:36;;;;;;;0.45;0.45;;;9.20;99.90;;;;;;5054780;28;20189;-71
2022/11/29 09:52:19;;;;;;;0.00;0.00;;;9.30;99.90;;;;;;5054438;28;20181;-71
2022/11/29 09:55:03;;;;;;;0.15;0.15;;;9.30;99.90;;;;;;5057697;28;20186;-71
2022/11/29 09:57:30;;;;;;;0.00;0.00;;;9.30;99.90;;;;;;5055062;28;20181;-71
2022/11/29 10:00:01;;;;;;;0.00;0.00;;;9.30;99.90;;;;;;5054934;28;20173;-71
2022/11/29 10:02:44;;;;;;;0.00;0.00;;;9.30;99.90;;;;;;5055107;28;20215;-71
2022/11/29 10:05:24;;;;;;;0.32;0.32;;;9.40;99.90;;;;;;5055087;28;20180;-71
2022/11/29 10:07:55;;;;;;;0.55;0.55;;;9.30;99.90;;;;;;5054852;28;20529;-71
2022/11/29 10:10:40;;;;;;;0.00;0.00;;;9.40;99.90;;;;;;5054780;28;20182;-71
2022/11/29 10:13:17;;;;;;;0.35;0.35;;;9.40;99.90;;;;;;5054603;28;20728;-71
2022/11/29 10:15:45;;;;;;;0.00;0.00;;;9.40;99.90;;;;;;5054707;28;20181;-71
2022/11/29 10:18:27;;;;;;;0.43;0.38;;;9.40;99.90;;;;;;5054697;28;20173;-71
2022/11/29 10:20:57;;;;;;;0.10;0.10;;;9.40;99.90;;;;;;5061395;28;20185;-71
2022/11/29 10:23:31;;;;;;;0.00;0.00;;;9.50;99.90;;;;;;5054540;28;20459;-71
2022/11/29 10:25:57;;;;;;;0.20;0.20;;;9.50;99.90;;;;;;5054173;28;20181;-71
2022/11/29 10:28:32;;;;;;;0.10;0.10;;;9.50;99.90;;;;;;5054539;28;20180;-71
2022/11/29 10:31:07;;;;;;;0.03;0.03;;;9.50;99.90;;;;;;5054427;28;20189;-71
2022/11/29 10:33:38;;;;;;;0.08;0.08;;;9.60;99.90;;;;;;5054312;28;20702;-71
2022/11/29 10:36:23;;;;;;;0.60;0.60;;;9.50;99.90;;;;;;5054406;28;20279;-71
2022/11/29 10:38:51;;;;;;;0.40;0.40;;;9.50;99.90;;;;;;5054231;28;20660;-71
2022/11/29 10:41:21;;;;;;;0.10;0.10;;;9.50;99.90;;;;;;5054365;28;20181;-71
2022/11/29 10:43:49;;;;;;;0.00;0.00;;;9.50;99.90;;;;;;5054245;28;20184;-71
2022/11/29 10:46:29;;;;;;;0.00;0.00;;;9.50;99.90;;;;;;5054048;28;20174;-72
2022/11/29 10:48:57;;;;;;;0.00;0.00;;;9.50;99.90;;;;;;5050556;28;20666;-73
2022/11/29 10:51:23;;;;;;;0.00;0.00;;;9.60;99.90;;;;;;5054092;28;20247;-73
2022/11/29 10:53:51;;;;;;;0.35;0.10;;;9.70;99.90;;;;;;5053768;28;20267;-73
2022/11/29 10:56:28;;;;;;;0.00;0.00;;;9.70;99.90;;;;;;5054028;28;20647;-73
2022/11/29 10:59:03;;;;;;;0.00;0.00;;;9.70;99.90;;;;;;5053734;28;20181;-73
2022/11/29 11:01:32;;;;;;;0.20;0.10;;;9.70;99.90;;;;;;5054080;28;20204;-73
2022/11/29 11:03:59;;;;;;;0.13;0.13;;;9.80;99.90;;;;;;5052959;28;20649;-72
2022/11/29 11:06:51;;;;;;;0.00;0.00;;;9.80;99.90;;;;;;5053382;28;20177;-69
2022/11/29 11:09:33;;;;;;;0.00;0.00;;;9.80;99.90;;;;;;5053643;28;20652;-66
2022/11/29 11:12:02;;;;;;;0.17;0.17;;;9.80;99.90;;;;;;5050003;28;20730;-68
2022/11/29 11:14:36;;;;;;;0.00;0.00;;;9.70;99.90;;;;;;5053861;28;20233;-70
2022/11/29 11:17:29;;;;;;;0.00;0.00;;;9.80;99.90;;;;;;5052883;28;20188;-71
2022/11/29 11:19:56;;;;;;;0.00;0.00;;;9.80;99.90;;;;;;5053198;28;20182;-71
2022/11/29 11:22:24;;;;;;;0.00;0.00;;;9.70;99.90;;;;;;5053319;28;20181;-71
2022/11/29 11:25:05;;;;;;;0.52;0.52;;;9.70;99.90;;;;;;5053187;28;20228;-72
2022/11/29 11:27:34;;;;;;;0.60;0.60;;;9.80;99.90;;;;;;5052832;28;20177;-71
2022/11/29 11:30:02;;;;;;;0.35;0.35;;;9.80;99.90;;;;;;5052975;28;20193;-72
2022/11/29 11:32:28;;;;;;;0.00;0.00;;;9.80;99.90;;;;;;5052833;28;20234;-71
2022/11/29 11:34:58;;;;;;;0.00;0.00;;;9.80;99.90;;;;;;5053045;28;20174;-72
2022/11/29 11:37:29;;;;;;;0.10;0.10;;;9.70;99.90;;;;;;5052414;28;20197;-71
2022/11/29 11:40:16;;;;;;;0.00;0.00;;;9.70;99.90;;;;;;5051663;28;20177;-71
2022/11/29 11:42:42;;;;;;;0.03;0.03;;;9.70;99.90;;;;;;5043043;28;20286;-71
2022/11/29 11:45:11;;;;;;;0.60;0.60;;;9.60;99.90;;;;;;5052767;28;20212;-71
2022/11/29 11:47:46;;;;;;;0.43;0.43;;;9.70;99.90;;;;;;5052552;28;20177;-71
2022/11/29 11:50:26;;;;;;;0.05;0.05;;;9.70;99.90;;;;;;5052528;28;20173;-71
2022/11/29 11:52:55;;;;;;;0.00;0.00;;;9.70;99.90;;;;;;5052630;28;20212;-71
2022/11/29 11:55:21;;;;;;;0.10;0.10;;;9.70;99.90;;;;;;5052524;28;20177;-72
2022/11/29 11:58:13;;;;;;;0.20;0.20;;;9.70;99.90;;;;;;5052428;28;20174;-72
2022/11/29 12:00:41;;;;;;;0.00;0.00;;;9.70;99.90;;;;;;5052600;28;20215;-71
2022/11/29 12:03:22;;;;;;;0.00;0.00;;;9.80;99.90;;;;;;5052509;28;20197;-71
2022/11/29 12:05:50;;;;;;;0.00;0.00;;;9.80;99.90;;;;;;5052329;28;20182;-72
2022/11/29 12:08:17;;;;;;;0.28;0.28;;;9.90;99.90;;;;;;5052461;28;20545;-71
2022/11/29 12:10:44;;;;;;;0.50;0.35;;;9.90;99.90;;;;;;5052339;28;20182;-71
2022/11/29 12:13:18;;;;;;;0.13;0.13;;;9.90;99.90;;;;;;5052128;28;20271;-71
2022/11/29 12:15:46;;;;;;;0.00;0.00;;;9.90;99.90;;;;;;5050792;28;20181;-71
2022/11/29 12:18:38;;;;;;;0.08;0.08;;;9.90;99.90;;;;;;5052559;28;20322;-71
2022/11/29 12:21:14;;;;;;;0.00;0.00;;;10.00;99.90;;;;;;5052308;28;20535;-71
2022/11/29 12:23:55;;;;;;;2.30;1.17;;;10.00;99.90;;;;;;5051271;28;20586;-71
2022/11/29 12:26:23;;;;;;;0.00;0.00;;;10.00;99.90;;;;;;5052290;28;20177;-69
2022/11/29 12:28:49;;;;;;;0.00;0.00;;;9.90;99.90;;;;;;5052330;28;20185;-70
2022/11/29 12:31:26;;;;;;;0.03;0.03;;;9.90;99.90;;;;;;5052366;28;20173;-70
2022/11/29 12:34:29;;;;;;;0.08;0.08;;;9.90;99.90;;;;;;5051424;28;20212;-70
2022/11/29 12:37:13;;;;;;;0.40;0.40;;;9.90;99.90;;;;;;5052360;28;20644;-71
2022/11/29 12:39:41;;;;;;;0.20;0.20;;;9.90;99.90;;;;;;5046446;28;20191;-70
2022/11/29 12:42:27;;;;;;;0.52;0.35;;;9.90;99.90;;;;;;5037473;28;20174;-70
2022/11/29 12:45:14;;;;;;;0.10;0.10;;;9.80;99.90;;;;;;5053726;28;20216;-70
2022/11/29 12:48:01;;;;;;;0.00;0.00;;;9.80;99.90;;;;;;5064460;28;20666;-70
2022/11/29 12:50:36;;;;;;;0.28;0.28;;;9.90;99.90;;;;;;5052045;28;20189;-70
2022/11/29 12:53:19;;;;;;;0.00;0.00;;;9.80;99.90;;;;;;5051747;28;20668;-70
2022/11/29 12:56:13;;;;;;;0.00;0.00;;;9.80;99.90;;;;;;5051823;28;20165;-70
2022/11/29 12:58:55;;;;;;;0.13;0.13;;;9.70;99.90;;;;;;5052004;28;20169;-71
2022/11/29 13:02:00;;;;;;;0.00;0.00;;;9.70;99.90;;;;;;5051979;28;20174;-71
2022/11/29 13:04:52;;;;;;;0.10;0.10;;;9.70;99.90;;;;;;5039667;28;20231;-70
2022/11/29 13:07:36;;;;;;;0.00;0.00;;;9.70;99.90;;;;;;5051940;28;20192;-70
2022/11/29 13:10:01;;;;;;;0.20;0.20;;;9.70;99.90;;;;;;5051743;28;20231;-70
2022/11/29 13:12:38;;;;;;;0.25;0.25;;;9.60;99.90;;;;;;5051436;28;20170;-70
2022/11/29 13:15:17;;;;;;;0.00;0.00;;;9.60;99.90;;;;;;5051446;28;20220;-71
2022/11/29 13:18:01;;;;;;;0.38;0.38;;;9.60;99.90;;;;;;5051497;28;20539;-70
2022/11/29 13:20:30;;;;;;;0.13;0.13;;;9.70;99.90;;;;;;5035696;28;20184;-70
2022/11/29 13:23:19;;;;;;;0.00;0.00;;;9.70;99.90;;;;;;5051314;28;20185;-70
2022/11/29 13:25:49;;;;;;;0.00;0.00;;;9.70;99.90;;;;;;5051468;28;20575;-70
2022/11/29 13:28:28;;;;;;;0.13;0.13;;;9.70;99.90;;;;;;5051254;28;20181;-70
2022/11/29 13:30:59;;;;;;;0.00;0.00;;;9.70;99.90;;;;;;5051348;28;20181;-70
2022/11/29 13:33:33;;;;;;;0.10;0.10;;;9.70;99.90;;;;;;5051354;28;20217;-71
2022/11/29 13:36:12;;;;;;;0.17;0.17;;;9.60;99.90;;;;;;5051176;28;20742;-70
2022/11/29 13:38:57;;;;;;;0.17;0.17;;;9.60;99.90;;;;;;5048017;28;20174;-71
2022/11/29 13:41:31;;;;;;;0.20;0.20;;;9.60;99.90;;;;;;5042983;28;20177;-71
2022/11/29 13:44:18;;;;;;;0.00;0.00;;;9.60;99.90;;;;;;5051288;28;20251;-71
2022/11/29 13:46:55;;;;;;;0.00;0.00;;;9.60;99.90;;;;;;5037498;28;20196;-71
2022/11/29 13:49:42;;;;;;;0.10;0.10;;;9.60;99.90;;;;;;5050665;28;20189;-70
2022/11/29 13:52:28;;;;;;;0.10;0.10;;;9.50;99.90;;;;;;5030383;28;20198;-71